Tiempo atmosférico en la estación meteorológica de Calasparra, Murcia (394 m.)



Fecha
DESCASC
Temp. máxima en grados centígrados (hora)
DESCASC
Temp. mínima en grados centígrados (hora)
DESCASC
Temp. media en grados centígrados
DESCASC
Racha de viento máxima en m/sg (hora)
DESCASC
Velocidad máxima media en intervalos de 10 minutos(hora)
DESCASC
Precipitaciones diarias en mm
DESCASC
Precipitaciones de 00:00 a 06:00 en mm
DESCASC
Precipitaciones de 06:00 a 12:00 en mm
DESCASC
Precipitaciones de 12:00 a 18:00 en mm
DESCASC
Precipitaciones de 18:00 a 24:00 en mm
DESCASC
18-09-2019 30.5 (16:20) 16.7 (00:00) 23.6 6.11 (18:20) 3.61 (19:00) 0 0 0 0 0
16-09-2019 29.6 (16:40) 18.4 (00:00) 24 6.67 (19:20) 4.17 (18:30) 0 0 0 0 0
15-09-2019 27.7 (15:40) 18.6 (00:00) 23.2 6.94 (16:00) 4.17 (19:10) 0 0 0 0 0
21-08-2019 28.3 (18:10) 19.5 (00:00) 23.9 9.17 (16:30) 4.44 (19:40) 2.8 0 2.6 0.2 0
01-09-2019 34.4 (14:50) 19.2 (00:00) 26.8 7.78 (19:00) 4.72 (19:40) 0 0 0 0 0
25-08-2019 31.3 (16:50) 18.3 (00:00) 24.8 8.61 (19:40) 5 (19:20) 0 0 0 0 0
14-09-2019 22.4 (14:00) 16.1 (00:00) 19.3 8.89 (03:40) 5 (00:40) 19.6 19.4 0 0.2 0
08-09-2019 28.3 (17:40) 16.3 (00:00) 22.3 8.33 (20:50) 5 (20:50) 0 0 0 0 0
22-08-2019 31.7 (16:30) 18.1 (00:00) 24.9 9.17 (17:20) 5.28 (19:20) 0 0 0 0 0
19-09-2019 28.5 (15:40) 17.5 (00:00) 23 8.61 (16:30) 5.28 (16:20) 0 0 0 0 0
23-08-2019 31.3 (15:50) 16.7 (00:00) 24 8.89 (18:50) 5.28 (19:40) 0 0 0 0 0
04-09-2019 32.2 (15:50) 21.2 (00:00) 26.7 9.44 (21:00) 5.56 (18:00) 0 0 0 0 0
09-09-2019 29.7 (13:30) 16.7 (07:00) 23.2 9.72 (18:00) 5.56 (18:10) 0 0 0 0 0
28-08-2019 34 (16:30) 17 (00:00) 25.5 9.44 (18:30) 5.56 (17:50) 0 0 0 0 0
12-09-2019 19.7 (20:10) 14.4 (00:00) 17.1 11.39 (18:40) 5.56 (18:40) 100.4 12 29.8 56.6 2
31-08-2019 35.4 (17:00) 19.5 (00:00) 27.5 11.11 (18:20) 5.83 (18:20) 0 0 0 0 0
02-09-2019 28.7 (17:10) 21.5 (00:00) 25.1 10 (14:00) 5.83 (16:20) 0 0 0 0 0
03-09-2019 31.9 (16:00) 20.9 (00:00) 26.4 10.28 (18:50) 5.83 (18:20) 0 0 0 0 0
17-09-2019 28 (16:30) 18.6 (00:00) 23.3 9.17 (17:40) 5.83 (17:40) 0 0 0 0 0
26-08-2019 28.5 (17:20) 19.8 (00:00) 24.1 10.83 (20:10) 5.83 (19:00) 0.2 0 0.2 0 0
30-08-2019 33.8 (16:10) 18.5 (00:00) 26.1 10 (18:20) 6.11 (18:20) 0 0 0 0 0
24-08-2019 32.7 (16:40) 16.7 (00:00) 24.7 9.44 (19:30) 6.11 (19:30) 0 0 0 0 0
05-09-2019 29.7 (17:20) 20.3 (00:00) 25 10.56 (19:10) 6.11 (19:20) 0 0 0 0 0
13-09-2019 23.3 (18:00) 14.9 (00:00) 19.1 11.11 (08:30) 6.39 (08:30) 65.6 27 32.4 3.4 2.8
29-08-2019 33.3 (15:00) 19.2 (00:00) 26.3 9.44 (18:30) 6.39 (18:40) 0 0 0 0 0
27-08-2019 30.3 (14:00) 17.9 (00:00) 24.1 11.11 (18:00) 6.67 (15:10) 4.4 0 0 4.4 0
07-09-2019 28.7 (16:00) 20.3 (00:00) 24.5 10.83 (18:10) 6.67 (18:10) 0 0 0 0 0
06-09-2019 29.6 (17:30) 20.6 (00:00) 25.1 11.11 (20:00) 6.67 (19:40) 0 0 0 0 0
11-09-2019 22.2 (17:00) 15.3 (00:00) 18.8 11.67 (18:10) 7.22 (18:10) 0.6 0 0.2 0.4 0
10-09-2019 26 (16:20) 18 (23:59) 22 16.39 (21:40) 8.61 (10:30) 0 0 0 0 0

Gráficas

Temp. máximas Temp. mínimas Temp. medias Precipitaciones Rachas de viento máximas Velocidades máximas media en intervalos de 10 minutos

Datos horarios

Fecha y hora oficial Temperatura (ºC) Velocidad del viento (km/h) Dirección del viento Racha (km/h) Dirección de racha Precipitación (mm) Presión (hPa) Tendencia (hPa) Humedad (%)
2019-09-19 23:00:00 21.2 3 Este 10 Sudeste 0 -- -- 74
2019-09-19 22:00:00 22.2 7 Sudeste 13 Sudeste 0 -- -- 68
2019-09-19 21:00:00 23.1 8 Sudeste 17 Sudeste 0 -- -- 66
2019-09-19 20:00:00 24.7 13 Sudeste 26 Sudeste 0 -- -- 57
2019-09-19 19:00:00 26.3 17 Sudeste 29 Sudeste 0 -- -- 54
2019-09-19 18:00:00 27.4 17 Sudeste 28 Sudeste 0 -- -- 51
2019-09-19 17:00:00 28 15 Sudeste 31 Sudeste 0 -- -- 48
2019-09-19 16:00:00 28.1 17 Sudeste 28 Sudeste 0 -- -- 48
2019-09-19 15:00:00 28.1 15 Sudeste 27 Sudeste 0 -- -- 46
2019-09-19 14:00:00 27.6 12 Sudeste 25 Sudeste 0 -- -- 47
2019-09-19 13:00:00 27 12 Sudeste 19 Sudeste 0 -- -- 47
2019-09-19 12:00:00 25.1 4 Nordeste 10 Nordeste 0 -- -- 61
2019-09-19 11:00:00 23 4 Norte 8 Norte 0 -- -- 69
2019-09-19 10:00:00 21.1 3 Sudeste 9 Sudeste 0 -- -- 77
2019-09-19 09:00:00 18.6 3 Sudeste 7 Sudoeste 0 -- -- 85
2019-09-19 08:00:00 17.5 3 Sudoeste 5 Sudoeste 0 -- -- 89
2019-09-19 07:00:00 17.9 2 Sudeste 9 Oeste 0 -- -- 87
2019-09-19 06:00:00 18.2 2 Sudoeste 5 Sudoeste 0 -- -- 86
2019-09-19 05:00:00 18.4 3 Sur 8 Sur 0 -- -- 87
2019-09-19 04:00:00 19.1 4 Sur 12 Sur 0 -- -- 85
2019-09-19 03:00:00 19.5 6 Sur 9 Sur 0 -- -- 83
2019-09-19 02:00:00 20.2 0 Calma -- -- 0 -- -- 82
2019-09-19 01:00:00 21 0 Calma 8 Este 0 -- -- 77
2019-09-19 00:00:00 21.8 3 Sudeste 11 Sur 0 -- -- 74
2019-09-18 23:00:00 22.6 7 Sudeste 17 Sudeste 0 -- -- 72
2019-09-18 22:00:00 23.9 5 Sudeste 21 Sudeste 0 -- -- 69
2019-09-18 21:00:00 25 9 Sudeste 21 Sudeste 0 -- -- 68
2019-09-18 20:00:00 26.6 10 Sudeste 19 Sudeste 0 -- -- 57
2019-09-18 19:00:00 28.2 13 Sudeste 22 Sudeste 0 -- -- 48
2019-09-18 18:00:00 29.4 12 Sudeste 19 Sudeste 0 -- -- 43
2019-09-18 17:00:00 30.3 4 Sudeste 14 Sudeste 0 -- -- 44
2019-09-18 16:00:00 30.1 4 Este 13 Nordeste 0 -- -- 42
2019-09-18 15:00:00 29.3 8 Nordeste 15 Nordeste 0 -- -- 45
2019-09-18 14:00:00 28.7 3 Nordeste 11 Nordeste 0 -- -- 49
2019-09-18 13:00:00 26.8 4 Nordeste 9 Nordeste 0 -- -- 55
2019-09-18 12:00:00 25.2 4 Norte 9 Noroeste 0 -- -- 58
2019-09-18 11:00:00 22.9 5 Norte 10 Nordeste 0 -- -- 65
2019-09-18 10:00:00 21.1 4 Sudeste 6 Sudeste 0 -- -- 74
2019-09-18 09:00:00 19.1 0 Calma 9 Oeste 0 -- -- 81
2019-09-18 08:00:00 16.8 5 Oeste 13 Oeste 0 -- -- 89
2019-09-18 07:00:00 17.1 9 Oeste 12 Oeste 0 -- -- 88
2019-09-18 06:00:00 18 3 Sur 11 Sur 0 -- -- 87
2019-09-18 05:00:00 18.1 4 Sur 13 Oeste 0 -- -- 84
2019-09-18 04:00:00 18.4 6 Noroeste 12 Oeste 0 -- -- 83
2019-09-18 03:00:00 18.6 4 Oeste 7 Oeste 0 -- -- 83
2019-09-18 02:00:00 19.5 0 Calma 15 Oeste 0 -- -- 80
2019-09-18 01:00:00 20 10 Oeste 17 Oeste 0 -- -- 76
2019-09-18 00:00:00 20.5 5 Oeste 13 Sudoeste 0 -- -- 74
2019-09-17 23:00:00 21.2 7 Oeste 15 Oeste 0 -- -- 69
2019-09-17 22:00:00 21.3 10 Oeste 17 Oeste 0 -- -- 70
2019-09-17 21:00:00 22.7 10 Noroeste 16 Oeste 0 -- -- 66
2019-09-15 18:00:00 -- -- -- -- -- -- -- -- --
2019-09-15 17:00:00 27.7 10 Nordeste 22 Este 0 -- -- 62
2019-09-15 16:00:00 27.7 14 Este 25 Este 0 -- -- 59
2019-09-15 15:00:00 26 10 Nordeste 21 Nordeste 0 -- -- 66
2019-09-15 14:00:00 26 5 Nordeste 18 Norte 0 -- -- 64
2019-09-15 13:00:00 25.7 9 Norte 19 Norte 0 -- -- 67
2019-09-15 12:00:00 23.9 9 Norte 17 Noroeste 0 -- -- 73
2019-09-15 11:00:00 22.3 6 Noroeste 13 Noroeste 0 -- -- 80
2019-09-15 10:00:00 20.2 4 Noroeste 10 Oeste 0 -- -- 88
2019-09-15 09:00:00 19.5 7 Noroeste 13 Oeste 0 -- -- 88
2019-09-15 08:00:00 19.1 6 Oeste 10 Oeste 0 -- -- 90
2019-09-15 07:00:00 18.7 6 Noroeste 10 Oeste 0 -- -- 91
2019-09-15 06:00:00 18.8 3 Norte 13 Oeste 0 -- -- 90
2019-09-15 05:00:00 19.6 6 Noroeste 13 Noroeste 0 -- -- 88
2019-09-15 04:00:00 20.2 8 Noroeste 13 Noroeste 0 -- -- 86
2019-09-15 03:00:00 20.4 5 Noroeste 10 Oeste 0 -- -- 85
2019-09-15 02:00:00 20.3 4 Noroeste 9 Oeste 0 -- -- 85
2019-09-15 01:00:00 20.4 4 Oeste 10 Oeste 0 -- -- 84
2019-09-15 00:00:00 20.4 4 Oeste 9 Oeste 0 -- -- 83
2019-09-14 23:00:00 20.7 4 Nordeste 13 Este 0 -- -- 80
2019-09-14 22:00:00 21 2 Nordeste 12 Oeste 0 -- -- 81
2019-09-14 21:00:00 20.9 8 Noroeste 14 Oeste 0 -- -- 80
2019-09-14 20:00:00 21.5 7 Norte 14 Nordeste 0 -- -- 78
2019-09-14 19:00:00 21.6 7 Noroeste 12 Norte 0 -- -- 77
2019-09-14 18:00:00 21.8 5 Norte 13 Norte 0 -- -- 76
2019-09-14 17:00:00 21.9 6 Norte 14 Norte 0 -- -- 75
2019-09-14 16:00:00 22 10 Norte 18 Oeste 0 -- -- 73
2019-09-14 15:00:00 21.9 7 Noroeste 15 Norte 0 -- -- 71
2019-09-14 14:00:00 22.4 8 Norte 19 Norte 0 -- -- 69
2019-09-14 13:00:00 21.6 12 Noroeste 22 Noroeste 0.2 -- -- 69
2019-09-14 12:00:00 20.6 7 Norte 19 Norte 0 -- -- 74
2019-09-14 11:00:00 19.9 9 Norte 16 Norte 0 -- -- 73
2019-09-14 10:00:00 18.4 6 Norte 12 Oeste 0 -- -- 87
2019-09-14 09:00:00 17.6 2 Nordeste 17 Oeste 0 -- -- 90
2019-09-14 08:00:00 16.4 9 Oeste 14 Oeste 0 -- -- 91
2019-09-14 07:00:00 16.5 3 Norte 9 Oeste 0 -- -- 91
2019-09-14 06:00:00 -- -- -- -- -- -- -- -- --
2019-09-14 05:00:00 16.7 3 Sudoeste 25 Nordeste 0.4 -- -- 93
2019-09-14 04:00:00 16.5 10 Nordeste 32 Sudoeste 5.4 -- -- 93
2019-09-14 03:00:00 16.9 6 Sur 19 Oeste 2 -- -- 91
2019-09-14 02:00:00 16.7 7 Sudoeste 30 Norte 1.8 -- -- 94
2019-09-14 01:00:00 17 8 Norte 31 Oeste 9.8 -- -- 91
2019-09-14 00:00:00 18.1 11 Noroeste 19 Noroeste 0 -- -- 91
2019-09-13 23:00:00 17.7 9 Noroeste 16 Oeste 0 -- -- 91
2019-09-13 22:00:00 18.5 8 Oeste 15 Oeste 0 -- -- 90
2019-09-13 21:00:00 18.3 2 Norte 16 Nordeste 0 -- -- 91
2019-09-13 20:00:00 18.1 6 Nordeste 22 Nordeste 1.4 -- -- 92
2019-09-13 19:00:00 19.4 12 Nordeste 28 Nordeste 1.4 -- -- 88
2019-09-13 18:00:00 23.3 3 Oeste 14 Oeste 0 -- -- 69
2019-09-13 17:00:00 22.4 7 Noroeste 17 Oeste 0 -- -- 72
2019-09-13 16:00:00 21.1 7 Noroeste 15 Noroeste 0 -- -- 77
2019-09-13 15:00:00 20.2 7 Noroeste 12 Noroeste 0 -- -- 80
2019-09-13 14:00:00 18.3 7 Noroeste 11 Norte 0.2 -- -- 88
2019-09-13 13:00:00 18 6 Nordeste 11 Nordeste 3.2 -- -- 90
2019-09-13 12:00:00 17.5 5 Noroeste 13 Noroeste 0 -- -- 90
2019-09-13 11:00:00 16.2 9 Noroeste 15 Noroeste 0 -- -- 94
2019-09-13 10:00:00 15.3 8 Noroeste 20 Noroeste 0 -- -- 95
2019-09-13 09:00:00 14.9 13 Noroeste 40 Noroeste 12.6 -- -- 96
2019-09-13 08:00:00 15.7 9 Sur 26 Noroeste 16.4 -- -- 95
2019-09-13 07:00:00 16 11 Noroeste 21 Oeste 3.4 -- -- 92
2019-09-13 06:00:00 15.8 7 Noroeste 21 Noroeste 2.2 -- -- 94
2019-09-13 05:00:00 15.7 4 Noroeste 15 Oeste 3.4 -- -- 94
2019-09-13 04:00:00 15.6 8 Oeste 19 Sudoeste 6.8 -- -- 94
2019-09-13 03:00:00 15.8 13 Oeste 21 Oeste 9.6 -- -- 94
2019-09-13 02:00:00 16.3 6 Noroeste 28 Noroeste 4.4 -- -- 93
2019-09-13 01:00:00 16.7 9 Noroeste 17 Noroeste 0.6 -- -- 89
2019-09-13 00:00:00 17.2 7 Sudoeste 23 Norte 0 -- -- 84
2019-09-12 23:00:00 17.2 10 Noroeste 24 Este 0.8 -- -- 83
2019-09-12 22:00:00 18.1 11 Norte 20 Nordeste 1 -- -- 88
2019-09-12 21:00:00 19.7 8 Nordeste 21 Nordeste 0 -- -- 77
2019-09-12 20:00:00 19.6 13 Nordeste 28 Nordeste 0 -- -- 81
2019-09-12 19:00:00 19.4 18 Nordeste 41 Nordeste 0.2 -- -- 82
2019-09-12 18:00:00 19.1 14 Nordeste 37 Nordeste 0 -- -- 83
2019-09-12 17:00:00 17.5 10 Norte 21 Norte 1.2 -- -- 96
2019-09-12 16:00:00 16.9 6 Noroeste 16 Noroeste 5.8 -- -- 96
2019-09-12 15:00:00 16.6 5 Noroeste 14 Noroeste 13.2 -- -- 96
2019-09-12 14:00:00 16.5 9 Noroeste 17 Noroeste 13.2 -- -- 95
2019-09-12 13:00:00 16.7 2 Sur 16 Oeste 23.2 -- -- 95
2019-09-12 12:00:00 16.8 8 Oeste 17 Oeste 17.6 -- -- 95
2019-09-12 11:00:00 16.5 7 Oeste 12 Oeste 7.6 -- -- 94
2019-09-12 10:00:00 16.4 3 Nordeste 15 Sur 3.2 -- -- 93
2019-09-12 09:00:00 16.3 5 Sur 8 Sur 1.4 -- -- 92
2019-09-12 08:00:00 16 5 Sur 7 Sur 0 -- -- 91
2019-09-12 07:00:00 15.4 5 Oeste 13 Norte 0 -- -- 93
2019-09-12 06:00:00 15.7 8 Norte 26 Este 0 -- -- 91
2019-09-12 05:00:00 15.5 6 Sur 32 Norte 1 -- -- 92
2019-09-12 04:00:00 14.5 10 Noroeste 18 Noroeste 4.4 -- -- 91
2019-09-12 03:00:00 14.5 11 Noroeste 21 Noroeste 5.6 -- -- 89
2019-09-12 02:00:00 15.5 5 Oeste 15 Noroeste 1 -- -- 82
2019-09-12 01:00:00 16.7 8 Noroeste 15 Noroeste 0 -- -- 67
2019-09-12 00:00:00 17.2 8 Noroeste 13 Noroeste 0 -- -- 67
2019-09-11 23:00:00 17.2 7 Noroeste 19 Nordeste 0 -- -- 66
2019-09-11 22:00:00 17.5 6 Nordeste 18 Nordeste 0 -- -- 68
2019-09-11 21:00:00 18.1 10 Nordeste 21 Este 0 -- -- 66
2019-09-11 20:00:00 19.5 10 Nordeste 37 Nordeste 0 -- -- 61
2019-09-11 19:00:00 21.1 20 Nordeste 42 Norte 0 -- -- 51
2019-09-11 18:00:00 21.3 23 Norte 41 Norte 0 -- -- 52
2019-09-11 17:00:00 22.2 22 Norte 41 Nordeste 0 -- -- 48
2019-09-11 16:00:00 20.6 22 Norte 38 Norte 0 -- -- 53
2019-09-11 15:00:00 19.5 16 Norte 39 Norte 0.2 -- -- 55
2019-09-11 14:00:00 19.5 14 Norte 33 Noroeste 0.2 -- -- 54
2019-09-11 13:00:00 20.3 15 Norte 36 Norte 0 -- -- 49
2019-09-11 12:00:00 18.9 14 Norte 39 Noroeste 0 -- -- 54
2019-09-11 11:00:00 16.2 9 Noroeste 26 Noroeste 0.2 -- -- 66
2019-09-11 10:00:00 16.4 15 Noroeste 24 Noroeste 0 -- -- 58
2019-09-11 09:00:00 16.4 12 Noroeste 23 Noroeste 0 -- -- 52
2019-09-11 08:00:00 16.7 12 Noroeste 24 Noroeste 0 -- -- 48
2019-09-11 07:00:00 16.8 11 Norte 26 Noroeste 0 -- -- 48
2019-09-11 06:00:00 16.4 9 Noroeste 20 Norte 0 -- -- 49
2019-09-11 05:00:00 15.7 7 Noroeste 14 Noroeste 0 -- -- 51
2019-09-11 04:00:00 15.3 8 Noroeste 17 Noroeste 0 -- -- 52
2019-09-11 03:00:00 15.8 10 Noroeste 29 Noroeste 0 -- -- 50
2019-09-11 02:00:00 16.3 14 Noroeste 39 Noroeste 0 -- -- 49
2019-09-11 01:00:00 17.1 14 Noroeste 40 Noroeste 0 -- -- 42
2019-09-11 00:00:00 18 15 Noroeste 31 Norte 0 -- -- 39
2019-09-10 23:00:00 19.1 21 Noroeste 46 Noroeste 0 -- -- 37
2019-09-10 22:00:00 20 22 Norte 59 Noroeste 0 -- -- 33
2019-09-10 21:00:00 21.8 25 Norte 47 Norte 0 -- -- 28
2019-09-10 20:00:00 23 22 Noroeste 44 Norte 0 -- -- 25
2019-09-10 19:00:00 24.1 25 Noroeste 47 Norte 0 -- -- 23
2019-09-10 18:00:00 25.1 23 Noroeste 45 Noroeste 0 -- -- 20
2019-09-10 17:00:00 25.9 17 Noroeste 47 Norte 0 -- -- 19
2019-09-10 16:00:00 25.8 24 Noroeste 48 Norte 0 -- -- 17
2019-09-10 15:00:00 24.8 22 Noroeste 38 Noroeste 0 -- -- 27
2019-09-10 14:00:00 24.6 16 Noroeste 34 Norte 0 -- -- 30
2019-09-10 13:00:00 23.8 13 Norte 35 Noroeste 0 -- -- 33
2019-09-10 12:00:00 22.5 17 Noroeste 37 Noroeste 0 -- -- 36
2019-09-10 11:00:00 23.2 21 Noroeste 51 Noroeste 0 -- -- 37
2019-09-10 10:00:00 23.6 24 Noroeste 38 Noroeste 0 -- -- 35
2019-09-10 09:00:00 21.2 2 Norte 12 Sudoeste 0 -- -- 54
2019-09-10 08:00:00 20.9 9 Sudoeste 24 Sur 0 -- -- 53
2019-09-10 07:00:00 20.4 8 Sudoeste 15 Sudoeste 0 -- -- 53
2019-09-10 06:00:00 19.6 4 Sudoeste 14 Oeste 0 -- -- 55
2019-09-10 05:00:00 20.7 6 Sur 15 Sudoeste 0 -- -- 55
2019-09-10 04:00:00 20.2 6 Sur 11 Sur 0 -- -- 58
2019-09-10 03:00:00 19.8 5 Sur 9 Sur 0 -- -- 59
2019-09-10 02:00:00 20.9 2 Noroeste 8 Sudeste 0 -- -- 56
2019-09-10 01:00:00 21.1 0 Calma 5 Sudeste 0 -- -- 57
2019-09-10 00:00:00 21.8 5 Sur 8 Sudeste 0 -- -- 58
2019-09-09 23:00:00 22.6 7 Sudeste 14 Sudeste 0 -- -- 57
2019-09-09 22:00:00 23.8 10 Sudeste 23 Sudeste 0 -- -- 53
2019-09-09 21:00:00 24.9 11 Sudeste 26 Sur 0 -- -- 50
2019-09-09 20:00:00 26.5 18 Sur 31 Sur 0 -- -- 43
2019-09-09 19:00:00 27.8 15 Sur 34 Sur 0 -- -- 41
2019-09-09 18:00:00 28.1 18 Sur 35 Sur 0 -- -- 39
2019-09-09 17:00:00 27.6 17 Sur 31 Sudeste 0 -- -- 44
2019-09-09 16:00:00 28.1 14 Sudeste 27 Sur 0 -- -- 45
2019-09-09 15:00:00 25.9 16 Sur 31 Sur 0 -- -- 47
2019-09-09 14:00:00 29.2 11 Sudeste 27 Este 0 -- -- 38
2019-09-09 13:00:00 28.2 8 Este 17 Sudeste 0 -- -- 45
2019-09-09 12:00:00 26 7 Este 13 Sudeste 0 -- -- 51
2019-09-09 11:00:00 23.6 6 Sudeste 9 Sudeste 0 -- -- 60
2019-09-09 10:00:00 20.4 5 Sudeste 9 Sudeste 0 -- -- 71
2019-09-09 09:00:00 17.8 4 Sur 8 Sur 0 -- -- 78
2019-09-09 08:00:00 16.8 4 Sur 8 Sudoeste 0 -- -- 82
2019-09-09 07:00:00 16.7 2 Sur 7 Sur 0 -- -- 82
2019-09-09 06:00:00 17.5 0 Calma 8 Oeste 0 -- -- 83
2019-09-09 05:00:00 17.7 6 Oeste 9 Oeste 0 -- -- 85
2019-09-09 04:00:00 18.4 0 Calma 6 Sudeste 0 -- -- 85
2019-09-09 03:00:00 19.3 4 Sudeste 10 Este 0 -- -- 81
2019-09-09 02:00:00 19.7 8 Sudeste 13 Sur 0 -- -- 79
2019-09-09 01:00:00 20 5 Sudeste 15 Sudeste 0 -- -- 75
2019-09-09 00:00:00 20.8 8 Sudeste 15 Sur 0 -- -- 69
2019-09-08 23:00:00 21.8 9 Sudeste 17 Sudeste 0 -- -- 65
2019-09-08 22:00:00 22.6 12 Sudeste 22 Sudeste 0 -- -- 58
2019-09-08 21:00:00 23.9 14 Sudeste 30 Sudeste 0 -- -- 53
2019-09-08 20:00:00 25.5 15 Sudeste 26 Sudeste 0 -- -- 48
2019-09-08 19:00:00 26.7 13 Sudeste 24 Sudeste 0 -- -- 43
2019-09-08 18:00:00 27.5 12 Sudeste 21 Sudeste 0 -- -- 43
2019-09-08 17:00:00 27.7 11 Sudeste 24 Sudeste 0 -- -- 43
2019-09-08 16:00:00 27.6 6 Sudeste 24 Sudeste 0 -- -- 43
2019-09-08 15:00:00 26.8 10 Sur 19 Sudeste 0 -- -- 46
2019-09-08 14:00:00 25.4 12 Sudeste 21 Sudeste 0 -- -- 50
2019-09-08 13:00:00 25.4 4 Sudeste 11 Nordeste 0 -- -- 52
2019-09-08 12:00:00 23.2 4 Este 9 Sudeste 0 -- -- 61
2019-09-08 11:00:00 21.9 2 Sudeste 6 Sur 0 -- -- 67
2019-09-08 10:00:00 19.4 2 Sur 6 Sur 0 -- -- 72
2019-09-08 09:00:00 17.1 0 Calma 6 Sur 0 -- -- 80
2019-09-08 08:00:00 16.4 5 Sur 8 Sur 0 -- -- 83
2019-09-08 07:00:00 16.9 3 Sur 5 Sudeste 0 -- -- 81
2019-09-08 06:00:00 17.6 3 Sudeste 8 Oeste 0 -- -- 80
2019-09-08 05:00:00 18 3 Sudoeste 7 Sudeste 0 -- -- 80
2019-09-08 04:00:00 18.6 0 Calma 3 Oeste 0 -- -- 81
2019-09-08 03:00:00 18.9 0 Calma 9 Este 0 -- -- 79
2019-09-08 02:00:00 19.6 5 Sudeste 13 Sur 0 -- -- 75
2019-09-08 01:00:00 20.3 4 Sudeste 12 Sur 0 -- -- 73
2019-09-08 00:00:00 20.8 7 Sudeste 20 Sudeste 0 -- -- 71
2019-09-07 23:00:00 21.2 12 Sudeste 33 Sudeste 0 -- -- 69
2019-09-07 22:00:00 21.7 20 Sudeste 35 Sudeste 0 -- -- 65
2019-09-07 21:00:00 22.6 17 Sudeste 30 Sudeste 0 -- -- 66
2019-09-07 20:00:00 23.7 19 Sudeste 32 Sudeste 0 -- -- 61
2019-09-07 19:00:00 25 24 Sudeste 39 Sudeste 0 -- -- 57
2019-09-07 18:00:00 27.1 19 Sudeste 37 Sudeste 0 -- -- 49
2019-09-07 17:00:00 27.7 22 Sudeste 35 Sudeste 0 -- -- 46
2019-09-07 16:00:00 28.7 13 Sudeste 30 Sudeste 0 -- -- 43
2019-09-07 15:00:00 27.1 19 Este 30 Este 0 -- -- 50
2019-09-07 14:00:00 27.9 14 Sudeste 28 Este 0 -- -- 48
2019-09-07 13:00:00 26.1 12 Sudeste 29 Este 0 -- -- 55
2019-09-07 12:00:00 24.3 14 Sudeste 22 Sudeste 0 -- -- 64
2019-09-07 11:00:00 23.3 9 Sudeste 15 Sudeste 0 -- -- 69
2019-09-07 10:00:00 21.8 6 Sudeste 10 Sudeste 0 -- -- 76
2019-09-07 09:00:00 20.9 4 Sudeste 8 Sudeste 0 -- -- 80
2019-09-07 08:00:00 20.3 3 Este 8 Sudeste 0 -- -- 82
2019-09-07 07:00:00 20.5 4 Sudeste 10 Sudeste 0 -- -- 81
2019-09-07 06:00:00 20.5 5 Sudeste 12 Sudeste 0 -- -- 82
2019-09-07 05:00:00 21 9 Sudeste 18 Sudeste 0 -- -- 80
2019-09-07 04:00:00 21.4 10 Sudeste 19 Sudeste 0 -- -- 80
2019-09-07 03:00:00 21.6 6 Sudeste 12 Sudeste 0 -- -- 78
2019-09-07 02:00:00 21.7 6 Sudeste 12 Sudeste 0 -- -- 75
2019-09-07 01:00:00 22 7 Sudeste 18 Sudeste 0 -- -- 74
2019-09-07 00:00:00 22.4 11 Sudeste 20 Sudeste 0 -- -- 71
2019-09-06 23:00:00 22.7 7 Sudeste 22 Sudeste 0 -- -- 71
2019-09-06 22:00:00 23.3 12 Sudeste 29 Sudeste 0 -- -- 71
2019-09-06 21:00:00 24 19 Sudeste 36 Sudeste 0 -- -- 66
2019-09-06 20:00:00 25.8 21 Sudeste 40 Sudeste 0 -- -- 58
2019-09-06 19:00:00 27.6 21 Sudeste 34 Sudeste 0 -- -- 52
2019-09-06 18:00:00 28.8 17 Sudeste 31 Sudeste 0 -- -- 46
2019-09-06 17:00:00 29.4 17 Sudeste 35 Sudeste 0 -- -- 45
2019-09-06 16:00:00 29.3 15 Sudeste 31 Este 0 -- -- 45
2019-09-06 15:00:00 28.5 17 Este 33 Sudeste 0 -- -- 48
2019-09-06 14:00:00 27.2 15 Sudeste 30 Sudeste 0 -- -- 53
2019-09-06 13:00:00 26.3 11 Sudeste 26 Sudeste 0 -- -- 55
2019-09-06 12:00:00 25.4 14 Sudeste 26 Sudeste 0 -- -- 59
2019-09-06 11:00:00 23.6 12 Sudeste 21 Sudeste 0 -- -- 67
2019-09-06 10:00:00 22.4 7 Sudeste 12 Sudeste 0 -- -- 75
2019-09-06 09:00:00 21.1 5 Sudeste 12 Sudeste 0 -- -- 77
2019-09-06 08:00:00 21.1 6 Sudeste 11 Sudeste 0 -- -- 80
2019-09-06 07:00:00 20.9 4 Sudeste 9 Sudeste 0 -- -- 81
2019-09-06 06:00:00 20.7 4 Sudeste 8 Sudeste 0 -- -- 83
2019-09-06 05:00:00 20.7 5 Sudeste 9 Sur 0 -- -- 83
2019-09-06 04:00:00 20.6 6 Sudeste 11 Sudeste 0 -- -- 84
2019-09-06 03:00:00 21.2 5 Sudeste 13 Sudeste 0 -- -- 81
2019-09-06 02:00:00 21.9 7 Sudeste 19 Sudeste 0 -- -- 78
2019-09-06 01:00:00 22 7 Sudeste 21 Sudeste 0 -- -- 79
2019-09-06 00:00:00 22.4 12 Sudeste 26 Sudeste 0 -- -- 77
2019-09-05 23:00:00 22.8 13 Sudeste 23 Sudeste 0 -- -- 72
2019-09-05 22:00:00 23.1 13 Sudeste 24 Sudeste 0 -- -- 68
2019-09-05 21:00:00 24.1 9 Sudeste 29 Sudeste 0 -- -- 62
2019-09-05 20:00:00 25.2 17 Sudeste 38 Sudeste 0 -- -- 59
2019-09-05 19:00:00 26.7 22 Sudeste 35 Sudeste 0 -- -- 55
2019-09-05 18:00:00 28.7 16 Sudeste 32 Este 0 -- -- 52
2019-09-05 17:00:00 29.6 14 Este 27 Nordeste 0 -- -- 47
2019-09-05 16:00:00 29.5 10 Sudeste 24 Sudeste 0 -- -- 48
2019-09-05 15:00:00 28.9 8 Sudeste 18 Sudeste 0 -- -- 51
2019-09-05 14:00:00 26.1 5 Sur 11 Sur 0 -- -- 62
2019-09-05 13:00:00 24.1 5 Norte 9 Norte 0 -- -- 70
2019-09-05 12:00:00 23.5 3 Nordeste 6 Nordeste 0 -- -- 75
2019-09-05 11:00:00 22.9 3 Nordeste 6 Norte 0 -- -- 78
2019-09-05 10:00:00 22.3 2 Nordeste 7 Sudeste 0 -- -- 80
2019-09-05 09:00:00 21.5 3 Sudeste 6 Sudeste 0 -- -- 82
2019-09-05 08:00:00 21 0 Calma 9 Oeste 0 -- -- 85
2019-09-05 07:00:00 20.7 3 Noroeste 4 Noroeste 0 -- -- 86
2019-09-05 06:00:00 20.3 0 Calma 8 Sur 0 -- -- 84
2019-09-05 05:00:00 21.4 4 Sur 8 Sur 0 -- -- 82
2019-09-05 04:00:00 21.7 8 Sur 10 Sur 0 -- -- 83
2019-09-05 03:00:00 21.5 2 Sur 6 Oeste 0 -- -- 82
2019-09-05 02:00:00 21.8 5 Noroeste 6 Noroeste 0 -- -- 82
2019-09-05 01:00:00 22.6 0 Calma 12 Sudeste 0 -- -- 78
2019-09-05 00:00:00 24 7 Sudeste 17 Sudeste 0 -- -- 69
2019-09-04 23:00:00 24.8 12 Sudeste 26 Este 0 -- -- 65
2019-09-04 22:00:00 25.7 12 Sudeste 31 Sudeste 0 -- -- 62
2019-09-04 21:00:00 26.9 19 Sudeste 34 Sudeste 0 -- -- 57
2019-09-04 20:00:00 28.5 18 Sudeste 29 Sudeste 0 -- -- 51
2019-09-04 19:00:00 30.4 16 Sudeste 26 Sudeste 0 -- -- 47
2019-09-04 18:00:00 31.6 20 Sudeste 31 Sudeste 0 -- -- 45
2019-09-04 17:00:00 32 18 Sudeste 32 Sudeste 0 -- -- 42
2019-09-04 16:00:00 31.8 15 Este 28 Sudeste 0 -- -- 42
2019-09-04 15:00:00 31.4 14 Sudeste 24 Sudeste 0 -- -- 45
2019-09-04 14:00:00 30.4 6 Este 19 Este 0 -- -- 48
2019-09-04 13:00:00 28.1 9 Nordeste 15 Este 0 -- -- 57
2019-09-04 12:00:00 26.7 4 Sur 14 Sudeste 0 -- -- 61
2019-09-04 11:00:00 24.2 3 Este 10 Sur 0 -- -- 70
2019-09-04 10:00:00 22.8 0 Calma 5 Nordeste 0 -- -- 80
2019-09-04 09:00:00 21.5 4 Nordeste 6 Nordeste 0 -- -- 86
2019-09-04 08:00:00 21.4 3 Nordeste 6 Nordeste 0 -- -- 86
2019-09-04 07:00:00 21.5 3 Sur 6 Sur 0 -- -- 84
2019-09-04 06:00:00 21.3 3 Norte 4 Nordeste 0 -- -- 87
2019-09-04 05:00:00 21.3 0 Calma 3 Noroeste 0 -- -- 87
2019-09-04 04:00:00 21.3 0 Calma 5 Sudeste 0 -- -- 87
2019-09-04 03:00:00 21.7 3 Este 8 Sudeste 0 -- -- 80
2019-09-04 02:00:00 22 5 Sudeste 14 Sudeste 0 -- -- 77
2019-09-04 01:00:00 22.6 8 Sudeste 19 Sudeste 0 -- -- 77
2019-09-04 00:00:00 23.4 9 Sudeste 21 Sudeste 0 -- -- 73
2019-09-03 23:00:00 24.3 11 Sudeste 25 Sudeste 0 -- -- 69
2019-09-03 22:00:00 25.2 11 Sudeste 34 Sudeste 0 -- -- 64
2019-09-03 21:00:00 26.4 15 Sudeste 32 Sudeste 0 -- -- 60
2019-09-03 20:00:00 27.8 13 Sudeste 35 Sudeste 0 -- -- 55
2019-09-03 19:00:00 29.4 18 Sudeste 37 Sudeste 0 -- -- 51
2019-09-03 18:00:00 30.9 17 Sudeste 30 Sudeste 0 -- -- 46
2019-09-03 17:00:00 31.6 17 Sudeste 29 Sudeste 0 -- -- 42
2019-09-03 16:00:00 31.9 17 Sudeste 28 Sudeste 0 -- -- 41
2019-09-03 15:00:00 31.1 15 Sudeste 25 Sudeste 0 -- -- 43
2019-09-03 14:00:00 30.6 10 Sudeste 24 Sudeste 0 -- -- 43
2019-09-03 13:00:00 29.3 9 Sudeste 21 Sudeste 0 -- -- 48
2019-09-03 12:00:00 27.9 7 Sudeste 19 Sudeste 0 -- -- 53
2019-09-03 11:00:00 26 5 Sudeste 12 Sudeste 0 -- -- 60
2019-09-03 10:00:00 24.1 4 Este 8 Este 0 -- -- 70
2019-09-03 09:00:00 21.7 4 Este 10 Sudeste 0 -- -- 79
2019-09-03 08:00:00 20.9 0 Calma 9 Sudeste 0 -- -- 84
2019-09-03 07:00:00 21 2 Este 5 Sudeste 0 -- -- 84
2019-09-03 06:00:00 21.8 3 Sudeste 6 Sudeste 0 -- -- 81
2019-09-03 05:00:00 21.6 0 Calma 6 Nordeste 0 -- -- 83
2019-09-03 04:00:00 21.7 3 Este 7 Sudeste 0 -- -- 80
2019-09-03 03:00:00 21.5 5 Sudeste 8 Sudeste 0 -- -- 81
2019-09-03 02:00:00 21.5 4 Sudeste 8 Sudeste 0 -- -- 76
2019-09-03 01:00:00 21.9 5 Sudeste 12 Sudeste 0 -- -- 72
2019-09-03 00:00:00 22.5 6 Sudeste 15 Sudeste 0 -- -- 67
2019-09-02 23:00:00 23.2 8 Sudeste 23 Sudeste 0 -- -- 66
2019-09-02 22:00:00 23.8 15 Sudeste 26 Sudeste 0 -- -- 73
2019-09-02 21:00:00 25.1 16 Sudeste 29 Sudeste 0 -- -- 69
2019-09-02 20:00:00 27.1 16 Sudeste 28 Sudeste 0 -- -- 56
2019-09-02 19:00:00 28 16 Sudeste 31 Sudeste 0 -- -- 52
2019-09-02 18:00:00 28.7 17 Sudeste 31 Sudeste 0 -- -- 50
2019-09-02 17:00:00 28.6 15 Sudeste 34 Sudeste 0 -- -- 48
2019-09-02 16:00:00 28.1 20 Sudeste 36 Sudeste 0 -- -- 50
2019-09-02 15:00:00 26.9 18 Sudeste 35 Sudeste 0 -- -- 55
2019-09-02 14:00:00 25.9 20 Este 36 Este 0 -- -- 62
2019-09-02 13:00:00 25.3 19 Sudeste 32 Sudeste 0 -- -- 68
2019-09-02 12:00:00 26.2 19 Sudeste 29 Sudeste 0 -- -- 65
2019-09-02 11:00:00 25.7 15 Sudeste 30 Sudeste 0 -- -- 65
2019-09-02 10:00:00 24.3 9 Sudeste 18 Sudeste 0 -- -- 73
2019-09-02 09:00:00 22.8 9 Sur 14 Sur 0 -- -- 76
2019-09-02 08:00:00 21.5 2 Sur 10 Sur 0 -- -- 69
2019-09-02 07:00:00 21.6 5 Sur 8 Sur 0 -- -- 68
2019-09-02 06:00:00 22 2 Norte 7 Sur 0 -- -- 70
2019-09-02 05:00:00 22.5 0 Calma 6 Noroeste 0 -- -- 67
2019-09-02 04:00:00 23.1 3 Este 8 Sudeste 0 -- -- 65
2019-09-02 03:00:00 23.6 5 Sur 11 Sur 0 -- -- 62
2019-09-02 02:00:00 24.4 6 Sudeste 11 Este 0 -- -- 59
2019-09-02 01:00:00 24.3 5 Nordeste 9 Nordeste 0 -- -- 57
2019-09-02 00:00:00 25.9 3 Este 12 Sudeste 0 -- -- 53
2019-09-01 23:00:00 27.4 8 Sudeste 15 Sudeste 0 -- -- 49
2019-09-01 22:00:00 27.8 9 Sudeste 17 Sudeste 0 -- -- 50
2019-09-01 21:00:00 29.2 10 Sudeste 26 Sudeste 0 -- -- 47
2019-09-01 20:00:00 30.6 14 Sudeste 27 Sudeste 0 -- -- 41
2019-09-01 19:00:00 32.5 16 Sudeste 28 Este 0 -- -- 35
2019-09-01 18:00:00 33.6 16 Sudeste 27 Sudeste 0 -- -- 34
2019-09-01 17:00:00 33.3 11 Sur 27 Sudeste 0 -- -- 34
2019-09-01 16:00:00 34.1 13 Sudeste 24 Sudeste 0 -- -- 31
2019-09-01 15:00:00 34.2 8 Sudeste 20 Nordeste 0 -- -- 32
2019-09-01 14:00:00 32.8 11 Nordeste 19 Nordeste 0 -- -- 38
2019-09-01 13:00:00 30.8 10 Nordeste 18 Nordeste 0 -- -- 43
2019-09-01 12:00:00 29.2 4 Este 11 Este 0 -- -- 46
2019-09-01 11:00:00 26.9 4 Nordeste 8 Nordeste 0 -- -- 51
2019-09-01 10:00:00 24.3 2 Este 6 Este 0 -- -- 57
2019-09-01 09:00:00 20.9 4 Noroeste 9 Sur 0 -- -- 69
2019-09-01 08:00:00 19.6 4 Sur 8 Sur 0 -- -- 72
2019-09-01 07:00:00 19.5 5 Sur 7 Sur 0 -- -- 73
2019-09-01 06:00:00 20.2 4 Sur 6 Sudeste 0 -- -- 71
2019-09-01 05:00:00 20.7 3 Sur 6 Sur 0 -- -- 70
2019-09-01 04:00:00 21.4 4 Sur 8 Sur 0 -- -- 68
2019-09-01 03:00:00 22.1 3 Oeste 5 Oeste 0 -- -- 67
2019-09-01 02:00:00 23 0 Calma 6 Oeste 0 -- -- 66
2019-09-01 01:00:00 23.4 3 Noroeste 8 Nordeste 0 -- -- 64
2019-09-01 00:00:00 24.7 3 Noroeste 13 Sudeste 0 -- -- 59
2019-08-31 23:00:00 26.5 7 Sudeste 14 Sudeste 0 -- -- 51
2019-08-31 22:00:00 27.5 9 Sudeste 20 Sudeste 0 -- -- 49
2019-08-31 21:00:00 28.6 12 Sudeste 27 Sudeste 0 -- -- 47
2019-08-31 20:00:00 30.1 17 Sudeste 31 Sudeste 0 -- -- 45
2019-08-31 19:00:00 32.5 11 Este 40 Nordeste 0 -- -- 35
2019-08-31 18:00:00 33.6 12 Este 31 Este 0 -- -- 30
2019-08-31 17:00:00 35.4 5 Este 19 Nordeste 0 -- -- 26
2019-08-31 16:00:00 34.7 6 Norte 18 Nordeste 0 -- -- 25
2019-08-31 15:00:00 33.8 9 Nordeste 18 Nordeste 0 -- -- 29
2019-08-31 14:00:00 32.6 6 Nordeste 15 Nordeste 0 -- -- 34
2019-08-31 13:00:00 31.2 5 Norte 12 Este 0 -- -- 37
2019-08-31 12:00:00 29.8 4 Este 10 Nordeste 0 -- -- 38
2019-08-31 11:00:00 27.2 3 Norte 8 Nordeste 0 -- -- 45
2019-08-31 10:00:00 24.2 3 Norte 6 Norte 0 -- -- 52
2019-08-31 09:00:00 21.8 4 Sur 6 Sur 0 -- -- 62
2019-08-31 08:00:00 19.8 4 Sur 8 Sudoeste 0 -- -- 66
2019-08-31 07:00:00 19.7 0 Calma 4 Sudeste 0 -- -- 69
2019-08-31 06:00:00 20.2 2 Sur 10 Oeste 0 -- -- 69
2019-08-31 05:00:00 20.3 5 Oeste 10 Oeste 0 -- -- 69
2019-08-31 04:00:00 20.8 4 Oeste 8 Sudoeste 0 -- -- 71
2019-08-31 03:00:00 21.8 5 Sur 9 Sur 0 -- -- 66
2019-08-31 02:00:00 22.3 0 Calma 8 Oeste 0 -- -- 67
2019-08-31 01:00:00 23.1 2 Sudeste 5 Sudeste 0 -- -- 61
2019-08-31 00:00:00 23.9 3 Norte 5 Nordeste 0 -- -- 61
2019-08-30 23:00:00 24.5 0 Calma 8 Nordeste 0 -- -- 58
2019-08-30 22:00:00 25.5 5 Nordeste 9 Nordeste 0 -- -- 55
2019-08-30 21:00:00 27.6 5 Sudeste 25 Sudeste 0 -- -- 45
2019-08-30 20:00:00 29.1 16 Sudeste 28 Sudeste 0 -- -- 43
2019-08-30 19:00:00 30 17 Sudeste 36 Sudeste 0 -- -- 42
2019-08-30 18:00:00 31.3 20 Sudeste 35 Este 0 -- -- 38
2019-08-30 17:00:00 32.9 20 Sudeste 33 Sudeste 0 -- -- 33
2019-08-30 16:00:00 33.1 8 Nordeste 17 Sudoeste 0 -- -- 33
2019-08-30 15:00:00 33.5 7 Sudeste 17 Sudeste 0 -- -- 31
2019-08-30 14:00:00 32.2 6 Nordeste 13 Nordeste 0 -- -- 38
2019-08-30 13:00:00 30.2 4 Sudeste 10 Sudeste 0 -- -- 45
2019-08-30 12:00:00 28.1 3 Nordeste 9 Sur 0 -- -- 51
2019-08-30 11:00:00 25.8 4 Nordeste 9 Nordeste 0 -- -- 59
2019-08-30 10:00:00 23.2 3 Norte 8 Oeste 0 -- -- 68
2019-08-30 09:00:00 20.6 3 Sur 7 Sudeste 0 -- -- 73
2019-08-30 08:00:00 18.6 3 Sur 7 Sudeste 0 -- -- 81
2019-08-30 07:00:00 18.9 0 Calma 6 Sur 0 -- -- 80
2019-08-30 06:00:00 19.2 2 Sudeste 9 Sur 0 -- -- 81
2019-08-30 05:00:00 19.9 7 Sur 10 Sur 0 -- -- 78
2019-08-30 04:00:00 20.7 4 Sur 6 Sur 0 -- -- 76
2019-08-30 03:00:00 21.3 0 Calma 5 Sur 0 -- -- 74
2019-08-30 02:00:00 22.4 0 Calma 8 Sudeste 0 -- -- 68
2019-08-30 01:00:00 23.1 3 Sudeste 8 Sudeste 0 -- -- 66
2019-08-30 00:00:00 23.1 2 Noroeste 6 Nordeste 0 -- -- 66
2019-08-29 23:00:00 24.6 3 Nordeste 16 Sudeste 0 -- -- 63
2019-08-29 22:00:00 26 9 Este 25 Sudeste 0 -- -- 63
2019-08-29 21:00:00 27 19 Sudeste 31 Sudeste 0 -- -- 61
2019-08-29 20:00:00 28.1 17 Sudeste 33 Sudeste 0 -- -- 57
2019-08-29 19:00:00 29.7 20 Sudeste 34 Sudeste 0 -- -- 48
2019-08-29 18:00:00 31.1 19 Sudeste 31 Sudeste 0 -- -- 42
2019-08-29 17:00:00 32.2 17 Sudeste 30 Sudeste 0 -- -- 35
2019-08-29 16:00:00 33 14 Sudeste 27 Sudeste 0 -- -- 32
2019-08-29 15:00:00 33.3 12 Sudeste 19 Sudeste 0 -- -- 32
2019-08-29 14:00:00 31.8 8 Este 24 Sudeste 0 -- -- 42
2019-08-29 13:00:00 28.6 8 Nordeste 14 Nordeste 0 -- -- 54
2019-08-29 12:00:00 28.3 5 Sudeste 10 Sur 0 -- -- 56
2019-08-29 11:00:00 24.7 2 Norte 9 Oeste 0 -- -- 70
2019-08-29 10:00:00 23.1 4 Noroeste 9 Oeste 0 -- -- 77
2019-08-29 09:00:00 21 0 Calma 4 Sudeste 0 -- -- 80
2019-08-29 08:00:00 19.3 0 Calma 5 Noroeste 0 -- -- 90
2019-08-29 07:00:00 19.5 4 Sur 6 Sudeste 0 -- -- 88
2019-08-29 06:00:00 20 3 Sur 4 Sudeste 0 -- -- 87
2019-08-29 05:00:00 20.6 0 Calma 4 Noroeste 0 -- -- 90
2019-08-29 04:00:00 21.3 3 Sudeste 11 Sudeste 0 -- -- 85
2019-08-29 03:00:00 21.7 6 Sur 10 Sur 0 -- -- 85
2019-08-29 02:00:00 21.7 2 Norte 7 Nordeste 0 -- -- 86
2019-08-29 01:00:00 22.8 4 Nordeste 16 Sudeste 0 -- -- 81
2019-08-29 00:00:00 24.2 8 Sudeste 16 Sudeste 0 -- -- 74
2019-08-28 23:00:00 24.7 5 Sudeste 12 Sudeste 0 -- -- 71
2019-08-28 22:00:00 26.2 10 Este 25 Sudeste 0 -- -- 64
2019-08-28 21:00:00 27.7 16 Sudeste 32 Sudeste 0 -- -- 53
2019-08-28 20:00:00 29.1 18 Sudeste 29 Sudeste 0 -- -- 49
2019-08-28 19:00:00 31 14 Sudeste 34 Sudeste 0 -- -- 43
2019-08-28 18:00:00 32 19 Sudeste 33 Sudeste 0 -- -- 37
2019-08-28 17:00:00 33.7 9 Sudeste 15 Nordeste 0 -- -- 27
2019-08-28 16:00:00 33.6 6 Norte 19 Nordeste 0 -- -- 27
2019-08-28 15:00:00 32.6 7 Nordeste 16 Norte 0 -- -- 29
2019-08-28 14:00:00 31.5 4 Norte 14 Nordeste 0 -- -- 34
2019-08-28 13:00:00 29.9 6 Este 12 Nordeste 0 -- -- 38
2019-08-28 12:00:00 27 5 Nordeste 10 Nordeste 0 -- -- 49
2019-08-28 11:00:00 23.7 5 Norte 11 Norte 0 -- -- 60
2019-08-28 10:00:00 21.1 5 Noroeste 9 Noroeste 0 -- -- 68
2019-08-28 09:00:00 19.5 2 Sur 6 Noroeste 0 -- -- 76
2019-08-28 08:00:00 17.3 4 Sur 5 Sur 0 -- -- 85
2019-08-28 07:00:00 17.2 6 Sur 8 Sur 0 -- -- 85
2019-08-28 06:00:00 17.9 5 Sur 6 Sur 0 -- -- 83
2019-08-28 05:00:00 18.2 4 Sur 8 Sur 0 -- -- 81
2019-08-28 04:00:00 19.1 0 Calma 10 Oeste 0 -- -- 80
2019-08-28 03:00:00 19.3 0 Calma 6 Noroeste 0 -- -- 81
2019-08-28 02:00:00 20.7 2 Sur 13 Sudeste 0 -- -- 73
2019-08-28 01:00:00 21.2 5 Sudeste 12 Sudeste 0 -- -- 70
2019-08-28 00:00:00 21.5 5 Sudeste 9 Sudeste 0 -- -- 70
2019-08-27 23:00:00 21.4 2 Sudeste 12 Este 0 -- -- 72
2019-08-27 22:00:00 23.1 3 Sur 8 Sudeste 0 -- -- 65
2019-08-27 21:00:00 24.5 6 Sur 12 Sudeste 0 -- -- 58
2019-08-27 20:00:00 25.2 10 Sudeste 31 Sudeste 0 -- -- 55
2019-08-27 19:00:00 25 14 Sudeste 38 Sudeste 0 -- -- 59
2019-08-27 18:00:00 26.2 22 Sudeste 40 Sudeste 0.2 -- -- 57
2019-08-27 17:00:00 28.5 4 Norte 13 Noroeste 0 -- -- 39
2019-08-27 16:00:00 25 5 Norte 39 Noroeste 4.2 -- -- 67
2019-08-27 15:00:00 29 8 Oeste 39 Oeste 0 -- -- 41
2019-08-27 14:00:00 30.3 8 Este 17 Nordeste 0 -- -- 38
2019-08-27 13:00:00 28.2 7 Norte 20 Nordeste 0 -- -- 45
2019-08-27 12:00:00 26.4 5 Nordeste 13 Nordeste 0 -- -- 53
2019-08-27 11:00:00 24.4 6 Nordeste 13 Nordeste 0 -- -- 55
2019-08-27 10:00:00 21.1 6 Noroeste 14 Noroeste 0 -- -- 64
2019-08-27 09:00:00 19 6 Noroeste 12 Noroeste 0 -- -- 72
2019-08-27 08:00:00 17.9 4 Oeste 7 Noroeste 0 -- -- 74
2019-08-27 07:00:00 18.4 5 Sudoeste 15 Oeste 0 -- -- 71
2019-08-27 06:00:00 18.2 9 Oeste 13 Oeste 0 -- -- 73
2019-08-27 05:00:00 18.1 11 Oeste 20 Noroeste 0 -- -- 75
2019-08-27 04:00:00 18.4 12 Noroeste 23 Noroeste 0 -- -- 74
2019-08-27 03:00:00 19.9 13 Noroeste 24 Oeste 0 -- -- 69
2019-08-27 02:00:00 22.1 10 Noroeste 20 Noroeste 0 -- -- 61
2019-08-27 01:00:00 22.5 4 Sur 10 Sur 0 -- -- 76
2019-08-27 00:00:00 22.6 4 Sur 11 Sudeste 0 -- -- 75
2019-08-26 23:00:00 23.2 6 Sudeste 17 Sudeste 0 -- -- 70
2019-08-26 22:00:00 23.9 12 Sudeste 24 Este 0 -- -- 63
2019-08-26 21:00:00 24.9 13 Sudeste 39 Este 0 -- -- 57
2019-08-26 20:00:00 26 19 Sudeste 33 Sudeste 0 -- -- 54
2019-08-26 19:00:00 27.3 21 Sudeste 34 Sudeste 0 -- -- 53
2019-08-26 18:00:00 28.5 12 Sudeste 27 Este 0 -- -- 49
2019-08-26 17:00:00 28.2 13 Este 32 Este 0 -- -- 44
2019-08-26 16:00:00 27.9 18 Este 28 Sudeste 0 -- -- 53
2019-08-26 15:00:00 27.8 13 Sudeste 26 Sudeste 0 -- -- 53
2019-08-26 14:00:00 26.3 13 Sudeste 27 Sudeste 0 -- -- 56
2019-08-26 13:00:00 26.5 13 Sudeste 31 Este 0 -- -- 56
2019-08-26 12:00:00 25 9 Sudeste 20 Sudeste 0 -- -- 66
2019-08-26 11:00:00 22 3 Noroeste 12 Nordeste 0.2 -- -- 81
2019-08-26 10:00:00 21.8 5 Noroeste 10 Nordeste 0 -- -- 80
2019-08-26 09:00:00 21.6 2 Nordeste 8 Sudeste 0 -- -- 81
2019-08-26 08:00:00 19.9 0 Calma 6 Nordeste 0 -- -- 90
2019-08-26 07:00:00 20.1 3 Norte 5 Noroeste 0 -- -- 88
2019-08-26 06:00:00 20.6 0 Calma 5 Nordeste 0 -- -- 86
2019-08-26 05:00:00 21.1 3 Este 5 Este 0 -- -- 83
2019-08-26 04:00:00 21.1 0 Calma 5 Sudoeste 0 -- -- 83
2019-08-26 03:00:00 21.4 2 Este 8 Este 0 -- -- 81
2019-08-26 02:00:00 21.6 3 Este 10 Sudeste 0 -- -- 80
2019-08-26 01:00:00 21.8 6 Sudeste 15 Sudeste 0 -- -- 78
2019-08-26 00:00:00 22.4 8 Sudeste 14 Sudeste 0 -- -- 76
2019-08-25 23:00:00 23.3 8 Sudeste 15 Sudeste 0 -- -- 68
2019-08-25 22:00:00 24.7 7 Sudeste 21 Sudeste 0 -- -- 62
2019-08-25 21:00:00 26.1 11 Sudeste 28 Sudeste 0 -- -- 57
2019-08-25 20:00:00 27.9 17 Sudeste 31 Sudeste 0 -- -- 46
2019-08-25 19:00:00 29.6 15 Sudeste 28 Sudeste 0 -- -- 38
2019-08-25 18:00:00 30.5 11 Sudeste 26 Sudeste 0 -- -- 36
2019-08-25 17:00:00 31.2 13 Sudeste 28 Sudeste 0 -- -- 32
2019-08-25 16:00:00 30.9 16 Sudeste 27 Este 0 -- -- 31
2019-08-25 15:00:00 30.8 10 Este 27 Este 0 -- -- 33
2019-08-25 14:00:00 29.8 6 Nordeste 26 Este 0 -- -- 42
2019-08-25 13:00:00 28.8 10 Sudeste 23 Sudeste 0 -- -- 42
2019-08-25 12:00:00 27.3 7 Sur 12 Sudeste 0 -- -- 52
2019-08-25 11:00:00 24.8 5 Nordeste 10 Este 0 -- -- 64
2019-08-25 10:00:00 21.9 5 Oeste 10 Oeste 0 -- -- 78
2019-08-25 09:00:00 19.4 6 Oeste 10 Oeste 0 -- -- 87
2019-08-25 08:00:00 18.3 0 Calma 6 Sudoeste 0 -- -- 85
2019-08-25 07:00:00 18.4 0 Calma 4 Sudeste 0 -- -- 88
2019-08-25 06:00:00 19 4 Sudeste 5 Sudeste 0 -- -- 85
2019-08-25 05:00:00 19.4 0 Calma 5 Sudoeste 0 -- -- 83
2019-08-25 04:00:00 20.4 2 Este 6 Oeste 0 -- -- 82
2019-08-25 03:00:00 21.2 0 Calma 10 Sudeste 0 -- -- 79
2019-08-25 02:00:00 21.8 7 Sudeste 13 Sudeste 0 -- -- 78
2019-08-25 01:00:00 22.3 6 Sudeste 13 Sudeste 0 -- -- 76
2019-08-25 00:00:00 23.1 10 Sudeste 18 Sudeste 0 -- -- 73
2019-08-24 23:00:00 23.9 10 Sudeste 17 Sudeste 0 -- -- 68
2019-08-24 22:00:00 24.9 15 Sudeste 26 Sudeste 0 -- -- 62
2019-08-24 21:00:00 26.4 15 Sudeste 32 Sudeste 0 -- -- 58
2019-08-24 20:00:00 28.2 19 Sudeste 34 Sudeste 0 -- -- 49
2019-08-24 19:00:00 30.7 18 Sudeste 32 Sudeste 0 -- -- 38
2019-08-24 18:00:00 32 11 Sudeste 26 Sudeste 0 -- -- 33
2019-08-24 17:00:00 32.7 8 Este 20 Norte 0 -- -- 30
2019-08-24 16:00:00 32.2 9 Norte 24 Norte 0 -- -- 26
2019-08-24 15:00:00 31.9 7 Norte 13 Este 0 -- -- 26
2019-08-24 14:00:00 29.7 5 Nordeste 13 Nordeste 0 -- -- 31
2019-08-24 13:00:00 28.4 5 Sudeste 13 Sudeste 0 -- -- 42
2019-08-24 12:00:00 26.9 4 Sudeste 10 Nordeste 0 -- -- 47
2019-08-24 11:00:00 24.6 4 Este 8 Nordeste 0 -- -- 52
2019-08-24 10:00:00 21.6 3 Noroeste 7 Noroeste 0 -- -- 60
2019-08-24 09:00:00 19.5 2 Sudeste 8 Sur 0 -- -- 68
2019-08-24 08:00:00 17.2 4 Sur 10 Sur 0 -- -- 77
2019-08-24 07:00:00 16.9 4 Sur 8 Sur 0 -- -- 78
2019-08-24 06:00:00 17.4 4 Sur 7 Sur 0 -- -- 76
2019-08-24 05:00:00 18.1 5 Sur 7 Sur 0 -- -- 74
2019-08-24 04:00:00 18.9 5 Sur 8 Sur 0 -- -- 74
2019-08-24 03:00:00 19.4 0 Calma 6 Sudeste 0 -- -- 70
2019-08-24 02:00:00 20.8 5 Sudoeste 8 Sudoeste 0 -- -- 64
2019-08-24 01:00:00 21.6 4 Sudeste 12 Sur 0 -- -- 62
2019-08-24 00:00:00 22.8 6 Sur 14 Sudeste 0 -- -- 61
2019-08-23 23:00:00 23.4 10 Sudeste 19 Sudeste 0 -- -- 62
2019-08-23 22:00:00 24.4 14 Sudeste 27 Sudeste 0 -- -- 59
2019-08-23 21:00:00 26.3 13 Sudeste 29 Sudeste 0 -- -- 49
2019-08-23 20:00:00 28.3 17 Sudeste 32 Sudeste 0 -- -- 41
2019-08-23 19:00:00 30 17 Sudeste 32 Sudeste 0 -- -- 32
2019-08-23 18:00:00 30.7 14 Sudeste 31 Sudeste 0 -- -- 29
2019-08-23 17:00:00 31 12 Sudeste 27 Sudeste 0 -- -- 29
2019-08-23 16:00:00 31.2 13 Sudeste 24 Sudeste 0 -- -- 31
2019-08-23 15:00:00 31 10 Sudeste 24 Sudeste 0 -- -- 30
2019-08-23 14:00:00 29.5 10 Este 25 Sudeste 0 -- -- 39
2019-08-23 13:00:00 27.9 7 Nordeste 15 Nordeste 0 -- -- 45
2019-08-23 12:00:00 26.7 4 Sudeste 9 Este 0 -- -- 48
2019-08-23 11:00:00 24.2 4 Nordeste 9 Norte 0 -- -- 61
2019-08-23 10:00:00 21.8 3 Nordeste 8 Nordeste -- -- -- 64
2019-08-23 09:00:00 19.1 3 Sudeste 6 Sudoeste 0 -- -- 70
2019-08-23 08:00:00 17.2 3 Sur 6 Sudeste 0 -- -- 76
2019-08-23 07:00:00 17.1 3 Sur 9 Sur 0 -- -- 77
2019-08-23 06:00:00 17.1 5 Sur 9 Sur 0 -- -- 77
2019-08-23 05:00:00 17.9 5 Sur 8 Sur 0 -- -- 74
2019-08-23 04:00:00 18.5 0 Calma 10 Sur 0 -- -- 73
2019-08-23 03:00:00 19.8 3 Sudeste 7 Sur 0 -- -- 74
2019-08-23 02:00:00 20.6 4 Sur 9 Sudeste 0 -- -- 75
2019-08-23 01:00:00 21.1 4 Sudeste 9 Sudeste 0 -- -- 74
2019-08-23 00:00:00 22 6 Sudeste 19 Sudeste 0 -- -- 69
2019-08-22 23:00:00 22.9 13 Sudeste 18 Sur 0 -- -- 66
2019-08-22 22:00:00 24.3 12 Sudeste 21 Sudeste 0 -- -- 57
2019-08-22 21:00:00 25.7 14 Sudeste 30 Sudeste 0 -- -- 54
2019-08-22 20:00:00 27.2 16 Sudeste 31 Sudeste 0 -- -- 49
2019-08-22 19:00:00 28.7 18 Sudeste 32 Sudeste 0 -- -- 48
2019-08-22 18:00:00 29.9 17 Sudeste 33 Sudeste 0 -- -- 43
2019-08-22 17:00:00 31.1 13 Sudeste 29 Sudeste 0 -- -- 39
2019-08-22 16:00:00 30.9 10 Sudeste 20 Sudeste 0 -- -- 39
2019-08-22 15:00:00 29.7 5 Norte 15 Sudeste 0 -- -- 43
2019-08-22 14:00:00 29.5 4 Sudeste 14 Noroeste 0 -- -- 46
2019-08-22 13:00:00 27.8 5 Sudeste 12 Nordeste 0 -- -- 52
2019-08-22 12:00:00 26.7 4 Este 9 Nordeste 0 -- -- 56
2019-08-22 11:00:00 24.2 3 Norte 10 Noroeste 0 -- -- 64
2019-08-22 10:00:00 21.9 4 Noroeste 9 Noroeste 0 -- -- 72
2019-08-22 09:00:00 19.6 5 Noroeste 10 Oeste 0 -- -- 82
2019-08-22 08:00:00 18.5 3 Oeste 6 Noroeste 0 -- -- 88
2019-08-22 07:00:00 18.2 0 Calma 4 Norte 0 -- -- 89
2019-08-22 06:00:00 18.9 0 Calma 4 Oeste 0 -- -- 87
2019-08-22 05:00:00 19.3 2 Sur 6 Sur 0 -- -- 86
2019-08-22 04:00:00 20.1 2 Sudeste 8 Sudeste 0 -- -- 83
2019-08-22 03:00:00 20.7 4 Sur 10 Sur 0 -- -- 81
2019-08-22 02:00:00 21.3 5 Sur 8 Sur 0 -- -- 79
2019-08-22 01:00:00 22.1 2 Sudoeste 9 Sur 0 -- -- 72
2019-08-22 00:00:00 22.1 5 Sur 10 Sur 0 -- -- 70
2019-08-21 23:00:00 22.4 3 Sudeste 17 Sur 0 -- -- 66
2019-08-21 22:00:00 23.2 12 Sur 21 Sur 0 -- -- 62
2019-08-21 21:00:00 24.6 10 Sur 25 Sudeste 0 -- -- 54
2019-08-21 20:00:00 26 11 Sudeste 24 Sudeste 0 -- -- 50
2019-08-21 19:00:00 27.2 8 Sudeste 16 Sudeste 0 -- -- 48
2019-08-21 18:00:00 28 9 Este 30 Este 0 -- -- 49
2019-08-21 17:00:00 27.8 12 Sudeste 33 Sudeste 0 -- -- 51
2019-08-21 16:00:00 26.8 4 Nordeste 9 Nordeste 0 -- -- 62
2019-08-21 15:00:00 24.7 4 Noroeste 11 Norte 0 -- -- 73
2019-08-21 14:00:00 23.6 4 Sudoeste 8 Sudoeste 0.2 -- -- 83
2019-08-21 13:00:00 22.4 6 Nordeste 10 Norte 0 -- -- 88
2019-08-21 12:00:00 21.4 3 Norte 9 Noroeste 0.8 -- -- 92
2019-08-21 11:00:00 20.8 6 Noroeste 12 Noroeste 0 -- -- 93
2019-08-21 10:00:00 19.9 5 Norte 12 Este 0.2 -- -- 94
2019-08-21 09:00:00 19.6 8 Nordeste 25 Nordeste 1 -- -- 94
2019-08-21 08:00:00 20.7 8 Nordeste 14 Nordeste 0.6 -- -- 93
2019-08-21 07:00:00 21.4 7 Nordeste 12 Norte 0 -- -- 87
2019-08-21 06:00:00 21.7 4 Norte 8 Oeste 0 -- -- 90
2019-08-21 05:00:00 21.7 5 Noroeste 6 Noroeste 0 -- -- 88
2019-08-21 04:00:00 21.7 0 Calma 5 Oeste 0 -- -- 87
2019-08-21 03:00:00 21.6 0 Calma 3 Nordeste 0 -- -- 86
2019-08-21 02:00:00 21.4 2 Nordeste 9 Nordeste 0 -- -- 87
2019-08-21 01:00:00 21.2 5 Norte 10 Norte 0 -- -- 89
2019-08-21 00:00:00 21.1 6 Nordeste 12 Norte 0 -- -- 89